Time;durP1;ratioP1;P1;durP2;ratioP2;P2;SDS_P1;SDS_P2;PMS_P1;PMS_P2;Temp;Humidity;BMP_temperature;BMP_pressure;BME280_temperature;BME280_humidity;BME280_pressure;Samples;Min_cycle;Max_cycle;Signal;HPM_P1;HPM_P2
2022/12/10 00:01:30;;;;;;;49.15;26.00;;;1.70;99.90;;;;;;5052615;28;20210;-47
2022/12/10 00:03:56;;;;;;;65.90;34.80;;;1.80;99.90;;;;;;5052609;28;20237;-48
2022/12/10 00:06:25;;;;;;;67.18;33.92;;;1.70;99.90;;;;;;5052992;28;20163;-49
2022/12/10 00:08:51;;;;;;;52.08;26.73;;;1.70;99.90;;;;;;5052628;28;20202;-49
2022/12/10 00:11:19;;;;;;;42.30;21.38;;;1.70;99.90;;;;;;5051775;28;20189;-44
2022/12/10 00:13:47;;;;;;;37.85;20.60;;;1.70;99.90;;;;;;5051793;28;20224;-45
2022/12/10 00:16:14;;;;;;;44.10;23.25;;;1.60;99.90;;;;;;5051905;28;20691;-45
2022/12/10 00:18:41;;;;;;;44.30;21.73;;;1.60;99.90;;;;;;5051937;28;20169;-46
2022/12/10 00:21:09;;;;;;;36.63;20.58;;;1.70;99.90;;;;;;5052127;28;20163;-45
2022/12/10 00:23:35;;;;;;;39.80;20.23;;;1.60;99.90;;;;;;5051731;28;20210;-46
2022/12/10 00:26:05;;;;;;;37.50;20.15;;;1.60;99.90;;;;;;5052083;28;20236;-45
2022/12/10 00:28:32;;;;;;;40.92;19.75;;;1.60;99.90;;;;;;5051765;28;20166;-45
2022/12/10 00:31:05;;;;;;;39.03;18.95;;;1.60;99.90;;;;;;5052109;28;20163;-45
2022/12/10 00:33:31;;;;;;;50.28;21.73;;;1.50;99.90;;;;;;5052191;28;20174;-45
2022/12/10 00:36:03;;;;;;;40.45;21.70;;;1.50;99.90;;;;;;5052324;28;20174;-45
2022/12/10 00:38:29;;;;;;;38.05;21.52;;;1.40;99.90;;;;;;5052159;28;20167;-45
2022/12/10 00:40:54;;;;;;;34.33;20.27;;;1.40;99.90;;;;;;5049771;28;20205;-45
2022/12/10 00:43:20;;;;;;;38.58;21.23;;;1.40;99.90;;;;;;5051987;28;20206;-46
2022/12/10 00:45:45;;;;;;;34.22;18.70;;;1.50;99.90;;;;;;5052094;28;20174;-46
2022/12/10 00:48:11;;;;;;;32.40;18.73;;;1.40;99.90;;;;;;5052064;28;20171;-45
2022/12/10 00:50:37;;;;;;;35.55;18.60;;;1.40;99.90;;;;;;5052056;28;20178;-45
2022/12/10 00:53:02;;;;;;;37.63;19.88;;;1.40;99.90;;;;;;5052013;28;20240;-45
2022/12/10 00:55:28;;;;;;;32.72;18.48;;;1.40;99.90;;;;;;5052013;28;20527;-45
2022/12/10 00:57:53;;;;;;;38.08;19.60;;;1.40;99.90;;;;;;5052053;28;20572;-45
2022/12/10 01:00:19;;;;;;;34.28;18.42;;;1.30;99.90;;;;;;5051523;28;20207;-46
2022/12/10 01:02:44;;;;;;;40.28;18.70;;;1.20;99.90;;;;;;5051725;28;20673;-45
2022/12/10 01:05:10;;;;;;;34.53;17.80;;;1.20;99.90;;;;;;5051800;28;20558;-45
2022/12/10 01:07:35;;;;;;;31.00;17.60;;;1.10;99.90;;;;;;5051784;28;20193;-45
2022/12/10 01:10:02;;;;;;;33.33;17.77;;;1.10;99.90;;;;;;5051871;28;20219;-45
2022/12/10 01:12:28;;;;;;;40.28;20.10;;;1.20;99.90;;;;;;5052103;28;20170;-45
2022/12/10 01:14:53;;;;;;;39.30;19.40;;;1.20;99.90;;;;;;5052306;28;20171;-47
2022/12/10 01:17:20;;;;;;;36.70;18.88;;;1.30;99.90;;;;;;5051685;28;20166;-44
2022/12/10 01:19:46;;;;;;;34.10;18.92;;;1.30;99.90;;;;;;5051654;28;20661;-47
2022/12/10 01:22:12;;;;;;;29.92;18.30;;;1.30;99.90;;;;;;5051530;28;20162;-46
2022/12/10 01:24:37;;;;;;;34.35;19.15;;;1.20;99.90;;;;;;5051729;28;20175;-46
2022/12/10 01:27:03;;;;;;;31.48;18.75;;;1.30;99.90;;;;;;5051114;28;20499;-45
2022/12/10 01:29:28;;;;;;;33.47;19.55;;;1.20;99.90;;;;;;5051515;28;20198;-45
2022/12/10 01:31:56;;;;;;;33.05;18.58;;;1.20;99.90;;;;;;5051828;28;20672;-45
2022/12/10 01:34:22;;;;;;;33.97;18.33;;;1.20;99.90;;;;;;5052181;28;20224;-45
2022/12/10 01:36:51;;;;;;;34.65;18.00;;;1.20;99.90;;;;;;5051538;28;20158;-45
2022/12/10 01:39:18;;;;;;;35.25;17.52;;;1.20;99.90;;;;;;5051761;28;20167;-44
2022/12/10 01:41:47;;;;;;;32.55;18.58;;;1.20;99.90;;;;;;5051492;28;20162;-44
2022/12/10 01:44:13;;;;;;;30.75;18.90;;;1.20;99.90;;;;;;5051277;28;20594;-44
2022/12/10 01:46:41;;;;;;;34.50;19.88;;;1.20;99.90;;;;;;5051434;28;20172;-45
2022/12/10 01:49:13;;;;;;;36.00;19.80;;;1.10;99.90;;;;;;5050133;28;20166;-45
2022/12/10 01:51:40;;;;;;;32.55;19.23;;;1.10;99.90;;;;;;5051462;28;20540;-44
2022/12/10 01:54:10;;;;;;;35.10;19.40;;;1.10;99.90;;;;;;5051423;28;20533;-44
2022/12/10 01:56:40;;;;;;;33.20;18.92;;;1.10;99.90;;;;;;5051385;28;20233;-45
2022/12/10 01:59:06;;;;;;;28.90;17.23;;;1.10;99.90;;;;;;5051274;28;20533;-45
2022/12/10 02:01:56;;;;;;;32.45;19.38;;;1.00;99.90;;;;;;5051136;28;20690;-44
2022/12/10 02:04:45;;;;;;;33.40;17.83;;;1.00;99.90;;;;;;5051191;28;20206;-45
2022/12/10 02:07:18;;;;;;;37.03;18.15;;;1.00;99.90;;;;;;5051110;28;20167;-45
2022/12/10 02:09:55;;;;;;;35.45;18.88;;;1.00;99.90;;;;;;5051275;28;20857;-45
2022/12/10 02:12:30;;;;;;;38.50;19.17;;;1.00;99.90;;;;;;5051667;28;20163;-45
2022/12/10 02:15:10;;;;;;;32.17;18.60;;;0.90;99.90;;;;;;5051212;28;20249;-45
2022/12/10 02:18:11;;;;;;;33.25;18.38;;;0.90;99.90;;;;;;5051258;28;20159;-45
2022/12/10 02:20:48;;;;;;;34.28;19.08;;;0.90;99.90;;;;;;5039264;28;20205;-44
2022/12/10 02:23:39;;;;;;;36.10;19.17;;;1.00;99.90;;;;;;5050900;28;20662;-45
2022/12/10 02:26:10;;;;;;;36.78;18.30;;;1.00;99.90;;;;;;5048378;28;20197;-45
2022/12/10 02:28:42;;;;;;;40.42;19.02;;;1.10;99.90;;;;;;5051050;28;20212;-45
2022/12/10 02:31:10;;;;;;;34.45;18.75;;;1.10;99.90;;;;;;5050946;28;20175;-45
2022/12/10 02:33:41;;;;;;;36.25;17.60;;;1.10;99.90;;;;;;5050976;28;20171;-45
2022/12/10 02:36:09;;;;;;;34.60;18.73;;;0.90;99.90;;;;;;5051036;28;20206;-45
2022/12/10 02:38:38;;;;;;;35.58;18.25;;;0.90;99.90;;;;;;5052511;28;20642;-45
2022/12/10 02:41:30;;;;;;;40.85;19.15;;;0.90;99.90;;;;;;5054589;28;20159;-45
2022/12/10 02:43:58;;;;;;;34.65;19.23;;;1.00;99.90;;;;;;5054409;28;20238;-45
2022/12/10 02:46:28;;;;;;;39.42;19.02;;;1.10;99.90;;;;;;5054774;28;20593;-45
2022/12/10 02:48:55;;;;;;;43.97;20.15;;;1.10;99.90;;;;;;5054963;28;20546;-45
2022/12/10 02:51:20;;;;;;;44.08;18.33;;;1.10;99.90;;;;;;5054716;28;20170;-45
2022/12/10 02:53:46;;;;;;;46.53;20.05;;;1.10;99.90;;;;;;5054329;28;20167;-45
2022/12/10 02:56:36;;;;;;;42.42;20.58;;;1.00;99.90;;;;;;5054472;28;20300;-45
2022/12/10 02:59:27;;;;;;;48.40;21.60;;;1.20;99.90;;;;;;5052814;28;20568;-46
2022/12/10 03:02:19;;;;;;;52.28;20.65;;;1.20;99.90;;;;;;5054926;28;20226;-45
2022/12/10 03:04:57;;;;;;;47.38;20.08;;;1.20;99.90;;;;;;5054112;28;20178;-45
2022/12/10 03:07:40;;;;;;;46.92;21.58;;;1.30;99.90;;;;;;5054396;28;20167;-45
2022/12/10 03:10:35;;;;;;;58.30;19.50;;;1.20;99.90;;;;;;5053964;28;20166;-45
2022/12/10 03:13:05;;;;;;;54.83;19.25;;;1.20;99.90;;;;;;5054155;28;20186;-45
2022/12/10 03:15:34;;;;;;;53.17;19.58;;;1.20;99.90;;;;;;5053865;28;20174;-46
2022/12/10 03:18:03;;;;;;;50.03;21.48;;;1.20;99.90;;;;;;5053942;28;20186;-45
2022/12/10 03:20:32;;;;;;;46.08;19.73;;;1.10;99.90;;;;;;5053750;28;20246;-45
2022/12/10 03:22:57;;;;;;;44.75;20.30;;;1.20;99.90;;;;;;5053595;28;20198;-45
2022/12/10 03:25:26;;;;;;;48.72;21.05;;;1.30;99.90;;;;;;5054121;28;20258;-45
2022/12/10 03:27:54;;;;;;;48.95;20.15;;;1.30;99.90;;;;;;5053998;28;20163;-44
2022/12/10 03:30:20;;;;;;;51.50;20.83;;;1.20;99.90;;;;;;5054196;28;20531;-45
2022/12/10 03:32:46;;;;;;;54.88;20.40;;;1.30;99.90;;;;;;5053602;28;20626;-45
2022/12/10 03:35:14;;;;;;;50.33;20.85;;;1.30;99.90;;;;;;5053512;28;20170;-47
2022/12/10 03:37:40;;;;;;;54.63;21.42;;;1.30;99.90;;;;;;5053418;28;20167;-48
2022/12/10 03:40:07;;;;;;;55.67;22.52;;;1.30;99.90;;;;;;5053345;28;20173;-46
2022/12/10 03:42:36;;;;;;;51.65;19.80;;;1.20;99.90;;;;;;5053169;28;20286;-46
2022/12/10 03:45:02;;;;;;;64.95;22.02;;;1.20;99.90;;;;;;5053311;28;20167;-49
2022/12/10 03:47:28;;;;;;;62.83;24.90;;;1.10;99.90;;;;;;5052062;28;20180;-46
2022/12/10 03:49:53;;;;;;;52.30;22.27;;;1.00;99.90;;;;;;5052809;28;20167;-45
2022/12/10 03:52:19;;;;;;;62.13;23.88;;;0.90;99.90;;;;;;5053504;28;20236;-45
2022/12/10 03:54:44;;;;;;;72.22;23.75;;;0.90;99.90;;;;;;5053366;28;20175;-47
2022/12/10 03:57:10;;;;;;;52.25;21.27;;;0.90;99.90;;;;;;5053080;28;20194;-46
2022/12/10 03:59:35;;;;;;;47.13;22.30;;;0.80;99.90;;;;;;5053070;28;20228;-45
2022/12/10 04:02:01;;;;;;;58.13;22.90;;;0.80;99.90;;;;;;5052803;28;20353;-45
2022/12/10 04:04:26;;;;;;;57.13;24.23;;;0.90;99.90;;;;;;5052876;28;20209;-45
2022/12/10 04:06:52;;;;;;;48.78;23.52;;;0.80;99.90;;;;;;5053269;28;20167;-46
2022/12/10 04:09:18;;;;;;;56.10;24.65;;;0.80;99.90;;;;;;5052850;28;20193;-45
2022/12/10 04:11:44;;;;;;;55.33;24.60;;;0.70;99.90;;;;;;5052640;28;20170;-47
2022/12/10 04:16:54;;;;;;;57.90;24.95;;;0.70;99.90;;;;;;5052745;28;20170;-45
2022/12/10 04:19:20;;;;;;;51.20;23.85;;;0.70;99.90;;;;;;5053091;28;20175;-45
2022/12/10 04:27:23;;;;;;;53.88;23.40;;;0.60;99.90;;;;;;5052814;28;20242;-46
2022/12/10 04:29:49;;;;;;;49.03;23.38;;;0.60;99.90;;;;;;5052741;28;20171;-45
2022/12/10 04:32:16;;;;;;;47.75;22.33;;;0.50;99.90;;;;;;5052248;28;20163;-47
2022/12/10 04:34:41;;;;;;;53.42;24.65;;;0.40;99.90;;;;;;5052088;28;20174;-46
2022/12/10 04:37:07;;;;;;;47.22;23.15;;;0.60;99.90;;;;;;5052333;28;20193;-45
2022/12/10 04:39:33;;;;;;;47.42;22.70;;;0.50;99.90;;;;;;5052209;28;20179;-47
2022/12/10 04:42:01;;;;;;;41.03;19.98;;;0.50;99.90;;;;;;5052156;28;20634;-45
2022/12/10 04:44:27;;;;;;;46.60;22.55;;;0.50;99.90;;;;;;5052058;28;20559;-46
2022/12/10 04:46:52;;;;;;;44.25;22.90;;;0.60;99.90;;;;;;5052540;28;20178;-46
2022/12/10 04:49:18;;;;;;;46.35;21.60;;;2.20;99.90;;;;;;5052264;28;20159;-46
2022/12/10 04:51:44;;;;;;;44.25;21.55;;;0.50;99.90;;;;;;5052150;28;20545;-45
2022/12/10 04:54:10;;;;;;;43.90;22.20;;;0.50;99.90;;;;;;5052378;28;20236;-45
2022/12/10 04:56:36;;;;;;;44.70;22.65;;;0.50;99.90;;;;;;5051890;28;20619;-47
2022/12/10 04:59:04;;;;;;;44.25;22.45;;;0.60;99.90;;;;;;5051694;28;20166;-46
2022/12/10 05:01:30;;;;;;;49.97;22.80;;;0.50;99.90;;;;;;5051181;28;20222;-45
2022/12/10 05:03:59;;;;;;;48.17;22.83;;;0.60;99.90;;;;;;5051830;28;20685;-45
2022/12/10 05:06:25;;;;;;;43.75;21.42;;;0.60;99.90;;;;;;5051978;28;20672;-45
2022/12/10 05:08:50;;;;;;;47.63;22.40;;;0.60;99.90;;;;;;5052157;28;20163;-45
2022/12/10 05:11:22;;;;;;;48.15;22.63;;;0.50;99.90;;;;;;5051748;28;20166;-45
2022/12/10 05:13:48;;;;;;;45.47;23.50;;;0.40;99.90;;;;;;5051708;28;20170;-45
2022/12/10 05:16:17;;;;;;;47.78;21.77;;;0.30;99.90;;;;;;5051711;28;20527;-45
2022/12/10 05:18:44;;;;;;;47.40;23.58;;;0.40;99.90;;;;;;5051659;28;20171;-45
2022/12/10 05:21:20;;;;;;;50.67;24.00;;;0.40;99.90;;;;;;5051687;28;20167;-45
2022/12/10 05:23:49;;;;;;;45.38;22.67;;;0.50;99.90;;;;;;5051819;28;20206;-45
2022/12/10 05:26:17;;;;;;;47.08;22.38;;;0.50;99.90;;;;;;5051567;28;20207;-45
2022/12/10 05:28:46;;;;;;;48.55;24.17;;;0.50;99.90;;;;;;5051592;28;20201;-45
2022/12/10 05:31:32;;;;;;;49.65;23.48;;;0.50;99.90;;;;;;5051782;28;20192;-45
2022/12/10 05:33:58;;;;;;;46.15;23.00;;;0.50;99.90;;;;;;5051446;28;20661;-45
2022/12/10 05:36:27;;;;;;;46.90;22.20;;;0.60;99.90;;;;;;5051534;28;20163;-46
2022/12/10 05:38:55;;;;;;;50.38;23.42;;;0.60;99.90;;;;;;5051927;28;20642;-45
2022/12/10 05:41:24;;;;;;;50.70;23.63;;;0.60;99.90;;;;;;5052080;28;20197;-45
2022/12/10 05:43:50;;;;;;;49.17;24.63;;;0.60;99.90;;;;;;5051677;28;20213;-45
2022/12/10 05:46:21;;;;;;;50.65;24.08;;;0.60;99.90;;;;;;5051392;28;20163;-45
2022/12/10 05:48:50;;;;;;;51.60;24.23;;;0.50;99.90;;;;;;5051340;28;20179;-45
2022/12/10 05:51:18;;;;;;;52.88;24.90;;;0.40;99.90;;;;;;5051364;28;20180;-45
2022/12/10 05:53:44;;;;;;;59.33;25.48;;;0.50;99.90;;;;;;5051376;28;20186;-45
2022/12/10 05:56:12;;;;;;;49.85;24.30;;;0.50;99.90;;;;;;5051207;28;20167;-45
2022/12/10 05:58:39;;;;;;;52.55;25.65;;;0.50;99.90;;;;;;5051021;28;20170;-45
2022/12/10 06:01:17;;;;;;;53.50;25.63;;;0.60;99.90;;;;;;5051101;28;20293;-45
2022/12/10 06:03:43;;;;;;;54.13;24.90;;;0.50;99.90;;;;;;5051132;28;20297;-45
2022/12/10 06:06:09;;;;;;;65.00;26.48;;;0.60;99.90;;;;;;5051201;28;20194;-44
2022/12/10 06:08:36;;;;;;;69.30;27.77;;;0.60;99.90;;;;;;5051300;28;20174;-45
2022/12/10 06:11:07;;;;;;;68.88;29.65;;;0.50;99.90;;;;;;5051231;28;20634;-45
2022/12/10 06:13:33;;;;;;;63.67;27.40;;;0.60;99.90;;;;;;5054447;28;20178;-45
2022/12/10 06:15:58;;;;;;;67.68;28.33;;;0.50;99.90;;;;;;5055285;28;20181;-45
2022/12/10 06:18:24;;;;;;;73.55;28.90;;;0.60;99.90;;;;;;5055031;28;20179;-45
2022/12/10 06:20:50;;;;;;;74.32;29.27;;;0.60;99.90;;;;;;5055503;28;20248;-50
2022/12/10 06:23:16;;;;;;;75.95;31.30;;;0.60;99.90;;;;;;5055033;28;20297;-45
2022/12/10 06:25:41;;;;;;;75.43;30.33;;;0.60;99.90;;;;;;5054876;28;20225;-46
2022/12/10 06:28:07;;;;;;;76.53;31.60;;;0.60;99.90;;;;;;5054842;28;20589;-45
2022/12/10 06:30:33;;;;;;;69.43;28.88;;;0.60;99.90;;;;;;5054769;28;20254;-45
2022/12/10 06:32:59;;;;;;;75.50;30.83;;;0.70;99.90;;;;;;5054679;28;20257;-45
2022/12/10 06:35:25;;;;;;;81.75;29.67;;;0.60;99.90;;;;;;5054609;28;20211;-45
2022/12/10 06:37:51;;;;;;;74.22;31.33;;;0.70;99.90;;;;;;5054984;28;20166;-45
2022/12/10 06:40:16;;;;;;;79.15;30.67;;;0.60;99.90;;;;;;5054526;28;20582;-45
2022/12/10 06:42:42;;;;;;;78.47;31.73;;;0.70;99.90;;;;;;5054401;28;20234;-45
2022/12/10 06:45:08;;;;;;;78.63;30.90;;;0.70;99.90;;;;;;5054494;28;20260;-45
2022/12/10 06:47:34;;;;;;;81.05;32.05;;;0.70;99.90;;;;;;5054451;28;20166;-45
2022/12/10 06:49:59;;;;;;;67.78;28.13;;;0.80;99.90;;;;;;5054422;28;20194;-46
2022/12/10 06:52:25;;;;;;;69.40;30.95;;;0.70;99.90;;;;;;5054298;28;20261;-45
2022/12/10 06:54:50;;;;;;;64.90;26.80;;;0.70;99.90;;;;;;5054565;28;20258;-44
2022/12/10 06:57:16;;;;;;;70.07;30.52;;;0.70;99.90;;;;;;5054225;28;20162;-49
2022/12/10 06:59:41;;;;;;;69.63;28.02;;;0.70;99.90;;;;;;5054203;28;20246;-45
2022/12/10 07:02:11;;;;;;;69.88;28.10;;;0.70;99.90;;;;;;5054226;28;20182;-45
2022/12/10 07:04:36;;;;;;;67.97;28.40;;;0.80;99.90;;;;;;5054248;28;20618;-46
2022/12/10 07:07:02;;;;;;;65.40;28.27;;;0.70;99.90;;;;;;5054034;28;20167;-47
2022/12/10 07:09:28;;;;;;;71.43;28.83;;;0.70;99.90;;;;;;5053856;28;20182;-45
2022/12/10 07:11:53;;;;;;;65.00;29.00;;;0.70;99.90;;;;;;5053675;28;20651;-45
2022/12/10 07:14:19;;;;;;;70.05;28.30;;;0.70;99.90;;;;;;5054515;28;20175;-47
2022/12/10 07:16:44;;;;;;;61.45;24.55;;;0.60;99.90;;;;;;5053764;28;20654;-46
2022/12/10 07:19:11;;;;;;;67.18;26.83;;;0.60;99.90;;;;;;5053469;28;20167;-50
2022/12/10 07:21:41;;;;;;;73.20;28.63;;;0.60;99.90;;;;;;5053809;28;20257;-47
2022/12/10 07:24:10;;;;;;;67.28;26.42;;;0.50;99.90;;;;;;5053116;28;20289;-51
2022/12/10 07:26:39;;;;;;;72.30;26.92;;;0.60;99.90;;;;;;5053633;28;20520;-49
2022/12/10 07:29:06;;;;;;;67.03;27.15;;;0.40;99.90;;;;;;5053800;28;20194;-47
2022/12/10 07:31:33;;;;;;;75.22;27.52;;;0.40;99.90;;;;;;5053370;28;20590;-49
2022/12/10 07:33:59;;;;;;;67.50;28.35;;;0.30;99.90;;;;;;5053541;28;20254;-44
2022/12/10 07:36:25;;;;;;;74.32;27.45;;;0.40;99.90;;;;;;5053272;28;20201;-45
2022/12/10 07:38:52;;;;;;;76.40;28.25;;;0.30;99.90;;;;;;5053209;28;20167;-46
2022/12/10 07:41:19;;;;;;;83.30;29.40;;;0.30;99.90;;;;;;5052858;28;20262;-45
2022/12/10 07:43:46;;;;;;;79.15;30.52;;;0.50;99.90;;;;;;5053191;28;20209;-45
2022/12/10 07:46:15;;;;;;;75.00;30.95;;;0.40;99.90;;;;;;5053511;28;20555;-45
2022/12/10 07:48:42;;;;;;;80.57;29.08;;;0.50;99.90;;;;;;5053580;28;20497;-45
2022/12/10 07:51:08;;;;;;;82.13;29.63;;;0.50;99.90;;;;;;5053229;28;20242;-45
2022/12/10 07:53:34;;;;;;;83.07;30.20;;;0.50;99.90;;;;;;5053141;28;20662;-50
2022/12/10 07:56:01;;;;;;;75.50;31.77;;;0.60;99.90;;;;;;5053157;28;20198;-49
2022/12/10 07:58:27;;;;;;;82.05;29.50;;;0.70;99.90;;;;;;5052971;28;20582;-51
2022/12/10 08:00:52;;;;;;;90.03;31.77;;;0.70;99.90;;;;;;5052713;28;20686;-45
2022/12/10 08:03:18;;;;;;;81.38;32.10;;;0.70;99.90;;;;;;5053202;28;20214;-45
2022/12/10 08:05:43;;;;;;;78.00;31.58;;;0.90;99.90;;;;;;5052830;28;20175;-50
2022/12/10 08:08:09;;;;;;;76.40;30.73;;;0.90;99.90;;;;;;5052831;28;20179;-51
2022/12/10 08:10:36;;;;;;;70.90;28.83;;;0.80;99.90;;;;;;5052764;28;20174;-47
2022/12/10 08:13:02;;;;;;;72.38;29.60;;;0.80;99.90;;;;;;5052442;28;20599;-45
2022/12/10 08:15:28;;;;;;;80.03;31.75;;;1.00;99.90;;;;;;5052747;28;20630;-45
2022/12/10 08:17:54;;;;;;;73.57;29.70;;;1.00;99.90;;;;;;5052527;28;20170;-44
2022/12/10 08:20:20;;;;;;;70.03;29.48;;;1.00;99.90;;;;;;5051748;28;20166;-45
2022/12/10 08:22:46;;;;;;;72.18;30.00;;;-0.60;99.90;;;;;;5052303;28;20198;-45
2022/12/10 08:25:11;;;;;;;75.85;29.10;;;1.00;99.90;;;;;;5052566;28;21116;-45
2022/12/10 08:27:37;;;;;;;65.80;27.02;;;1.10;99.90;;;;;;5052559;28;20178;-50
2022/12/10 08:30:03;;;;;;;68.25;28.58;;;1.00;99.90;;;;;;5052583;28;20583;-45
2022/12/10 08:32:29;;;;;;;91.28;33.15;;;1.10;99.90;;;;;;5052461;28;20162;-45
2022/12/10 08:34:55;;;;;;;60.75;27.92;;;1.10;99.90;;;;;;5052645;28;20531;-45
2022/12/10 08:37:20;;;;;;;70.30;26.25;;;1.10;99.90;;;;;;5052911;28;20198;-45
2022/12/10 08:39:46;;;;;;;57.28;24.67;;;1.10;99.90;;;;;;5052465;28;20173;-46
2022/12/10 08:42:12;;;;;;;56.67;26.60;;;1.00;99.90;;;;;;5052312;28;20166;-46
2022/12/10 08:44:37;;;;;;;61.95;26.85;;;1.00;99.90;;;;;;5052137;28;20706;-45
2022/12/10 08:47:03;;;;;;;61.85;25.27;;;1.00;99.90;;;;;;5052243;28;20185;-44
2022/12/10 08:49:28;;;;;;;62.45;26.45;;;1.10;99.90;;;;;;5052184;28;20163;-45
2022/12/10 08:51:54;;;;;;;63.33;26.95;;;1.00;99.90;;;;;;5052116;28;20163;-46
2022/12/10 08:54:20;;;;;;;62.17;26.13;;;1.20;99.90;;;;;;5052496;28;20170;-45
2022/12/10 08:56:45;;;;;;;61.35;26.73;;;1.20;99.90;;;;;;5051998;28;20182;-46
2022/12/10 08:59:11;;;;;;;56.08;26.67;;;1.30;99.90;;;;;;5052209;28;20162;-45
2022/12/10 09:01:36;;;;;;;72.47;27.88;;;1.30;99.90;;;;;;5051761;28;20218;-45
2022/12/10 09:04:03;;;;;;;56.55;26.27;;;1.30;99.90;;;;;;5052045;28;20256;-45
2022/12/10 09:06:30;;;;;;;51.10;24.75;;;1.30;99.90;;;;;;5051920;28;20198;-45
2022/12/10 09:08:55;;;;;;;65.60;27.77;;;1.40;99.90;;;;;;5052013;28;20181;-45
2022/12/10 09:11:33;;;;;;;65.75;28.42;;;1.40;99.90;;;;;;5052202;28;20167;-45
2022/12/10 09:13:58;;;;;;;68.50;28.27;;;1.30;99.90;;;;;;5051990;28;20182;-46
2022/12/10 09:16:32;;;;;;;68.18;28.15;;;1.30;99.90;;;;;;5051676;28;20257;-45
2022/12/10 09:18:59;;;;;;;66.63;26.98;;;1.50;99.90;;;;;;5051698;28;20224;-45
2022/12/10 09:21:24;;;;;;;67.20;26.95;;;1.60;99.90;;;;;;5051645;28;20527;-46
2022/12/10 09:23:51;;;;;;;65.32;28.02;;;1.60;99.90;;;;;;5051885;28;20286;-46
2022/12/10 09:26:17;;;;;;;66.80;27.73;;;1.70;99.90;;;;;;5051849;28;20190;-49
2022/12/10 09:28:44;;;;;;;62.15;27.33;;;1.60;99.90;;;;;;5051586;28;20201;-49
2022/12/10 09:31:10;;;;;;;73.30;29.75;;;1.60;99.90;;;;;;5051838;28;20178;-45
2022/12/10 09:33:37;;;;;;;70.03;29.48;;;1.60;99.90;;;;;;5051547;28;20689;-46
2022/12/10 09:36:07;;;;;;;70.60;29.05;;;1.60;99.90;;;;;;5051540;28;20171;-45
2022/12/10 09:38:38;;;;;;;66.60;28.70;;;1.70;99.90;;;;;;5051522;28;20163;-46
2022/12/10 09:41:13;;;;;;;73.97;30.98;;;1.70;99.90;;;;;;5051474;28;20162;-45
2022/12/10 09:44:08;;;;;;;75.28;29.98;;;1.80;99.90;;;;;;5051637;28;20214;-45
2022/12/10 09:46:51;;;;;;;70.95;31.33;;;1.80;99.90;;;;;;5051536;28;20162;-45
2022/12/10 09:49:41;;;;;;;74.90;30.58;;;2.00;99.90;;;;;;5055768;28;20167;-45
2022/12/10 09:52:13;;;;;;;65.65;29.23;;;1.90;99.90;;;;;;5055457;28;20533;-45
2022/12/10 09:54:53;;;;;;;67.90;30.42;;;1.80;99.90;;;;;;5055654;28;20253;-45
2022/12/10 09:57:31;;;;;;;71.50;29.60;;;1.80;99.90;;;;;;5055911;28;20166;-45
2022/12/10 10:00:01;;;;;;;71.28;30.00;;;1.80;99.90;;;;;;5055198;28;20631;-46
2022/12/10 10:02:27;;;;;;;63.70;26.02;;;1.80;99.90;;;;;;5055194;28;20186;-50
2022/12/10 10:05:12;;;;;;;63.28;29.27;;;1.80;99.90;;;;;;5055243;28;20245;-51
2022/12/10 10:07:48;;;;;;;80.25;33.35;;;1.80;99.90;;;;;;5055448;28;20167;-46
2022/12/10 10:10:25;;;;;;;83.40;35.28;;;2.00;99.90;;;;;;5055742;28;20302;-46
2022/12/10 10:12:54;;;;;;;64.07;30.00;;;1.90;99.90;;;;;;5055625;28;20166;-46
2022/12/10 10:15:28;;;;;;;65.13;28.17;;;1.80;99.90;;;;;;5055758;28;20178;-46
2022/12/10 10:17:58;;;;;;;67.15;28.40;;;1.80;99.90;;;;;;5055286;28;20170;-46
2022/12/10 10:20:23;;;;;;;64.55;28.33;;;1.90;99.90;;;;;;5054962;28;20177;-45
2022/12/10 10:22:50;;;;;;;61.08;26.60;;;1.80;99.90;;;;;;5055348;28;20194;-45
2022/12/10 10:25:18;;;;;;;65.43;28.23;;;1.80;99.90;;;;;;5055004;28;20202;-46
2022/12/10 10:27:44;;;;;;;72.18;29.17;;;2.00;99.90;;;;;;5054847;28;20163;-45
2022/12/10 10:30:18;;;;;;;60.42;27.15;;;2.20;99.90;;;;;;5055084;28;20228;-45
2022/12/10 10:32:50;;;;;;;63.80;27.00;;;2.30;99.90;;;;;;5054805;28;20638;-45
2022/12/10 10:35:32;;;;;;;61.05;27.42;;;2.20;99.90;;;;;;5054614;28;20642;-46
2022/12/10 10:38:07;;;;;;;62.20;27.58;;;2.10;99.90;;;;;;5054683;28;20210;-45
2022/12/10 10:40:42;;;;;;;54.72;25.33;;;2.10;99.90;;;;;;5054992;28;20626;-45
2022/12/10 10:43:15;;;;;;;59.35;27.02;;;2.20;99.90;;;;;;5054470;28;20196;-46
2022/12/10 10:45:49;;;;;;;60.38;27.38;;;2.20;99.90;;;;;;5054570;28;20216;-46
2022/12/10 10:48:18;;;;;;;55.55;27.35;;;2.20;99.90;;;;;;5054861;28;20170;-45
2022/12/10 10:50:46;;;;;;;57.83;25.95;;;2.30;99.90;;;;;;5054767;28;20178;-46
2022/12/10 10:53:23;;;;;;;58.95;26.83;;;2.20;99.90;;;;;;5054319;28;20170;-46
2022/12/10 10:55:49;;;;;;;51.72;23.48;;;2.60;99.90;;;;;;5054598;28;20653;-45
2022/12/10 10:58:19;;;;;;;62.20;25.35;;;2.40;99.90;;;;;;5052164;28;20171;-46
2022/12/10 11:00:57;;;;;;;55.45;26.15;;;2.40;99.90;;;;;;5053804;28;20226;-46
2022/12/10 11:03:24;;;;;;;78.10;33.75;;;2.20;99.90;;;;;;5053923;28;20194;-46
2022/12/10 11:05:49;;;;;;;90.78;33.92;;;2.20;99.90;;;;;;5054459;28;20212;-45
2022/12/10 11:08:20;;;;;;;83.30;35.20;;;2.30;99.90;;;;;;5052754;28;20526;-45
2022/12/10 11:10:54;;;;;;;85.88;35.67;;;2.40;99.90;;;;;;5052601;28;20174;-45
2022/12/10 11:13:26;;;;;;;86.75;32.25;;;4.40;99.90;;;;;;5054032;28;20174;-45
2022/12/10 11:16:09;;;;;;;58.15;26.95;;;2.50;99.90;;;;;;5053644;28;20578;-45
2022/12/10 11:18:50;;;;;;;58.80;25.63;;;2.50;99.90;;;;;;5053816;28;20174;-46
2022/12/10 11:21:21;;;;;;;63.50;26.20;;;2.30;99.90;;;;;;5054010;28;20626;-45
2022/12/10 11:23:54;;;;;;;51.65;24.00;;;2.30;99.90;;;;;;5053889;28;20561;-45
2022/12/10 11:26:29;;;;;;;53.40;26.23;;;2.30;99.90;;;;;;5054006;28;20654;-45
2022/12/10 11:29:01;;;;;;;61.22;27.02;;;2.30;99.90;;;;;;5053895;28;20542;-45
2022/12/10 11:31:51;;;;;;;66.25;28.73;;;2.30;99.90;;;;;;5053510;28;20162;-45
2022/12/10 11:34:56;;;;;;;50.47;22.08;;;2.40;99.90;;;;;;5053617;28;20171;-46
2022/12/10 11:37:36;;;;;;;44.00;20.70;;;2.30;99.90;;;;;;5050536;28;20185;-45
2022/12/10 11:40:20;;;;;;;40.70;19.33;;;2.50;99.90;;;;;;5053769;28;20174;-45
2022/12/10 11:43:17;;;;;;;45.38;21.33;;;2.50;99.90;;;;;;5053402;28;20171;-45
2022/12/10 11:46:09;;;;;;;39.53;21.23;;;2.50;99.90;;;;;;5052733;28;20178;-47
2022/12/10 11:49:11;;;;;;;37.30;20.95;;;2.60;99.90;;;;;;5052840;28;20163;-45
2022/12/10 11:52:02;;;;;;;44.47;21.85;;;2.50;99.90;;;;;;5052716;28;20634;-50
2022/12/10 11:54:41;;;;;;;38.17;19.13;;;2.50;99.90;;;;;;5052852;28;20186;-45
2022/12/10 11:57:26;;;;;;;34.83;18.00;;;2.60;99.90;;;;;;5052747;28;20534;-45
2022/12/10 12:00:14;;;;;;;30.80;15.85;;;2.50;99.90;;;;;;5052364;28;20174;-46
2022/12/10 12:03:06;;;;;;;31.10;16.15;;;2.50;99.90;;;;;;5052732;28;20531;-44
2022/12/10 12:06:17;;;;;;;37.60;18.17;;;2.50;99.90;;;;;;5052777;28;20562;-45
2022/12/10 12:09:24;;;;;;;35.90;19.73;;;2.40;99.90;;;;;;5052750;28;20552;-45
2022/12/10 12:12:04;;;;;;;28.77;16.33;;;2.30;99.90;;;;;;5052720;28;20197;-46
2022/12/10 12:14:39;;;;;;;30.92;16.73;;;2.30;99.90;;;;;;5052790;28;20190;-45
2022/12/10 12:17:25;;;;;;;39.78;17.23;;;2.20;99.90;;;;;;5052649;28;20174;-45
2022/12/10 12:20:02;;;;;;;33.17;18.15;;;2.40;99.90;;;;;;5053199;28;20648;-48
2022/12/10 12:22:36;;;;;;;31.90;15.98;;;2.90;99.90;;;;;;5052897;28;20219;-45
2022/12/10 12:25:17;;;;;;;29.83;17.15;;;2.40;99.90;;;;;;5052769;28;20205;-45
2022/12/10 12:27:48;;;;;;;31.00;16.55;;;2.50;99.90;;;;;;5052574;28;20573;-45
2022/12/10 12:30:21;;;;;;;37.75;17.40;;;2.50;99.90;;;;;;5052432;28;20167;-46
2022/12/10 12:32:58;;;;;;;29.35;16.80;;;2.50;99.90;;;;;;5052469;28;20163;-45
2022/12/10 12:35:44;;;;;;;29.05;17.45;;;2.60;99.90;;;;;;5052442;28;20177;-45
2022/12/10 12:38:35;;;;;;;28.00;16.85;;;2.70;99.90;;;;;;5052352;28;20220;-46
2022/12/10 12:41:23;;;;;;;34.40;18.23;;;2.70;99.90;;;;;;5052223;28;20250;-47
2022/12/10 12:44:14;;;;;;;34.78;18.77;;;2.50;99.90;;;;;;5052589;28;20198;-45
2022/12/10 12:46:46;;;;;;;30.85;17.48;;;2.60;99.90;;;;;;5052184;28;20296;-45
2022/12/10 12:49:24;;;;;;;32.22;18.80;;;2.50;99.90;;;;;;5052100;28;20178;-45
2022/12/10 12:52:23;;;;;;;34.65;18.40;;;2.50;99.90;;;;;;5052712;28;20215;-45
2022/12/10 12:54:49;;;;;;;32.90;17.83;;;2.60;99.90;;;;;;5052434;28;20631;-45
2022/12/10 12:57:40;;;;;;;26.50;17.73;;;2.70;99.90;;;;;;5052057;28;20232;-46
2022/12/10 13:00:10;;;;;;;29.45;17.73;;;2.70;99.90;;;;;;5051859;28;20769;-45
2022/12/10 13:03:04;;;;;;;33.97;19.15;;;2.70;99.90;;;;;;5051833;28;20162;-46